createdAt,value
2022-09-16T00:01:15.903Z,4175.8
2022-09-16T00:06:50.952Z,4176.6
2022-09-16T00:12:26.061Z,4177.1
2022-09-16T00:18:01.358Z,4177.3
2022-09-16T00:23:36.299Z,4177.1
2022-09-16T00:29:12.165Z,4178.8
2022-09-16T00:34:47.214Z,4175.6
2022-09-16T00:40:23.746Z,4176.1
2022-09-16T00:45:59.111Z,4176.4
2022-09-16T00:51:34.110Z,4174.3
2022-09-16T00:57:08.885Z,4176.3
2022-09-16T01:02:43.750Z,4176.9
2022-09-16T01:08:19.961Z,4175.4
2022-09-16T01:13:56.565Z,4174.9
2022-09-16T01:19:31.343Z,4174.8
2022-09-16T01:25:07.552Z,4176.6
2022-09-16T01:30:42.413Z,4173.3
2022-09-16T01:36:18.276Z,4173.1
2022-09-16T01:41:53.053Z,4173.6
2022-09-16T01:47:29.022Z,4174.6
2022-09-16T01:53:04.713Z,4173.1
2022-09-16T01:58:39.629Z,4173.4
2022-09-16T02:04:15.540Z,4175.1
2022-09-16T02:09:51.287Z,4172.4
2022-09-16T02:15:26.022Z,4171.4
2022-09-16T02:21:01.209Z,4170.9
2022-09-16T02:26:36.147Z,4172.3
2022-09-16T02:32:32.901Z,4169.4
2022-09-16T02:38:05.538Z,4170.1
2022-09-16T02:43:41.117Z,4169.7
2022-09-16T02:49:15.988Z,4169.4
2022-09-16T02:54:50.785Z,4168.4
2022-09-16T03:00:26.700Z,4169.1
2022-09-16T03:06:01.466Z,4168.2
2022-09-16T03:11:36.293Z,4168.4
2022-09-16T03:17:11.127Z,4170.2
2022-09-16T03:22:46.827Z,4168.1
2022-09-16T03:28:22.738Z,4168.9
2022-09-16T03:34:19.243Z,4163.5
2022-09-16T03:39:54.080Z,4167.6
2022-09-16T03:45:30.102Z,4167.4
2022-09-16T03:51:06.107Z,4164.7
2022-09-16T03:56:40.949Z,4165.6
2022-09-16T04:02:16.444Z,4165.4
2022-09-16T04:07:52.316Z,4165.4
2022-09-16T04:13:27.486Z,4167.6
2022-09-16T04:19:02.290Z,4164.9
2022-09-16T04:24:38.044Z,4165.6
2022-09-16T04:30:12.716Z,4164.2
2022-09-16T04:35:47.721Z,4163.5
2022-09-16T04:41:23.588Z,4162.4
2022-09-16T04:46:58.481Z,4163.7
2022-09-16T04:52:33.564Z,4163.5
2022-09-16T04:58:08.236Z,4161.7
2022-09-16T05:03:45.196Z,4162.9
2022-09-16T05:09:20.540Z,4164
2022-09-16T05:14:55.386Z,4161.7
2022-09-16T05:20:31.323Z,4161
2022-09-16T05:26:07.362Z,4162.2
2022-09-16T05:32:04.284Z,4156.7
2022-09-16T05:37:37.799Z,4160.9
2022-09-16T05:43:13.749Z,4159.9
2022-09-16T05:48:48.833Z,4160.4
2022-09-16T05:54:24.810Z,4159.2
2022-09-16T06:00:00.766Z,4160.9
2022-09-16T06:05:35.591Z,4156
2022-09-16T06:11:11.223Z,4158.7
2022-09-16T06:16:47.073Z,4162.2
2022-09-16T06:22:22.272Z,4157.4
2022-09-16T06:28:00.077Z,4159.5
2022-09-16T06:33:57.082Z,4154.2
2022-09-16T06:39:29.826Z,4157
2022-09-16T06:45:06.962Z,4156
2022-09-16T06:50:44.247Z,4158
2022-09-16T06:56:19.559Z,4156.3
2022-09-16T07:01:56.482Z,4154.7
2022-09-16T07:07:31.656Z,4156.7
2022-09-16T07:13:06.907Z,4160.9
2022-09-16T07:18:43.180Z,4167.9
2022-09-16T07:24:24.952Z,4166.2
2022-09-16T07:30:09.731Z,4169.4
2022-09-16T07:35:46.090Z,4166.1
2022-09-16T07:41:21.223Z,4165.9
2022-09-16T07:46:56.321Z,4168.1
2022-09-16T07:52:33.184Z,4166.4
2022-09-16T07:58:08.711Z,4170.6
2022-09-16T08:03:44.125Z,4171.3
2022-09-16T08:09:55.515Z,4167.9
2022-09-16T08:15:31.939Z,4171.9
2022-09-16T08:21:06.988Z,4165.7
2022-09-16T08:26:45.016Z,4169.7
2022-09-16T08:32:20.268Z,4170.1
2022-09-16T08:37:56.193Z,4177.1
2022-09-16T08:43:31.998Z,4175.9
2022-09-16T08:49:07.665Z,4171.6
2022-09-16T08:54:42.818Z,4178.1
2022-09-16T09:00:20.868Z,4178.3
2022-09-16T09:05:55.645Z,4183.5
2022-09-16T09:11:36.299Z,4189.7
2022-09-16T09:17:14.352Z,4189.5
2022-09-16T09:22:49.517Z,4181.1
2022-09-16T09:28:24.436Z,4180.8
2022-09-16T09:34:22.468Z,4180.5
2022-09-16T09:39:58.114Z,4186.2
2022-09-16T09:45:33.159Z,4186.2
2022-09-16T09:51:10.402Z,4193.4
2022-09-16T09:56:46.638Z,4189.7
2022-09-16T10:02:23.688Z,4190.7
2022-09-16T10:08:00.794Z,4206.6
2022-09-16T10:13:36.159Z,4207.6
2022-09-16T10:19:10.958Z,4204.1
2022-09-16T10:24:47.810Z,4213.8
2022-09-16T10:30:24.688Z,4208.9
2022-09-16T10:35:59.551Z,4215.8
2022-09-16T10:41:36.060Z,4219.5
2022-09-16T10:47:11.328Z,4214.5
2022-09-16T10:52:47.134Z,4215.3
2022-09-16T10:58:24.929Z,4210.1
2022-09-16T11:04:05.215Z,4204.9
2022-09-16T11:09:40.519Z,4204.2
2022-09-16T11:15:18.076Z,4213.8
2022-09-16T11:20:53.905Z,4219.5
2022-09-16T11:26:29.878Z,4224.4
2022-09-16T11:32:28.751Z,4217.1
2022-09-16T11:38:02.712Z,4215.1
2022-09-16T11:43:38.816Z,4210.6
2022-09-16T11:49:15.775Z,4221.7
2022-09-16T11:54:52.037Z,4213.8
2022-09-16T12:00:28.109Z,4218.7
2022-09-16T12:06:05.243Z,4227
2022-09-16T12:11:40.167Z,4215
2022-09-16T12:17:14.988Z,4226.7
2022-09-16T12:22:51.961Z,4228.9
2022-09-16T12:28:27.142Z,4230.4
2022-09-16T12:34:23.942Z,4226.2
2022-09-16T12:40:00.301Z,4218.3
2022-09-16T12:45:35.513Z,4213.5
2022-09-16T12:51:10.495Z,4212.5
2022-09-16T12:56:48.416Z,4215.5
2022-09-16T13:02:26.913Z,4217
2022-09-16T13:08:02.225Z,4211
2022-09-16T13:13:38.815Z,4216
2022-09-16T13:19:14.907Z,4223
2022-09-16T13:24:49.923Z,4216
2022-09-16T13:30:27.691Z,4223.2
2022-09-16T13:36:04.331Z,4218
2022-09-16T13:41:39.159Z,4220.7
2022-09-16T13:47:15.317Z,4217
2022-09-16T13:52:50.663Z,4220.7
2022-09-16T13:58:25.941Z,4226.9
2022-09-16T14:04:01.701Z,4221.7
2022-09-16T14:09:36.852Z,4230.5
2022-09-16T14:15:12.696Z,4227.9
2022-09-16T14:20:49.643Z,4220.5
2022-09-16T14:26:24.669Z,4225.4
2022-09-16T14:32:21.868Z,4225.7
2022-09-16T14:37:55.915Z,4217.3
2022-09-16T14:43:31.000Z,4227.4
2022-09-16T14:49:05.894Z,4231.7
2022-09-16T14:54:41.999Z,4224.7
2022-09-16T15:00:18.007Z,4226.2
2022-09-16T15:05:52.983Z,4213.1
2022-09-16T15:11:51.139Z,4221.5
2022-09-16T15:17:27.084Z,4217.3
2022-09-16T15:23:01.956Z,4222.2
2022-09-16T15:28:39.081Z,4222.2
2022-09-16T15:34:35.689Z,4226.4
2022-09-16T15:40:09.484Z,4222.8
2022-09-16T15:45:45.371Z,4226.4
2022-09-16T15:51:27.024Z,4221
2022-09-16T15:57:05.062Z,4226.4
2022-09-16T16:02:42.276Z,4210.9
2022-09-16T16:08:17.269Z,4210.3
2022-09-16T16:13:53.364Z,4209.8
2022-09-16T16:19:29.220Z,4202.9
2022-09-16T16:25:03.855Z,4205.6
2022-09-16T16:30:39.145Z,4205.8
2022-09-16T16:36:15.006Z,4209.4
2022-09-16T16:41:49.847Z,4209.3
2022-09-16T16:47:24.651Z,4203.9
2022-09-16T16:53:00.497Z,4207.4
2022-09-16T16:58:35.730Z,4206.6
2022-09-16T17:04:10.769Z,4205.9
2022-09-16T17:09:46.895Z,4205.9
2022-09-16T17:15:22.866Z,4203.6
2022-09-16T17:20:57.825Z,4202.9
2022-09-16T17:26:35.454Z,4203.9
2022-09-16T17:32:32.324Z,4200.2
2022-09-16T17:38:08.045Z,4202.4
2022-09-16T17:43:44.191Z,4202.1
2022-09-16T17:49:20.452Z,4200.1
2022-09-16T17:54:55.173Z,4197.6
2022-09-16T18:00:30.899Z,4200.9
2022-09-16T18:06:07.091Z,4200.9
2022-09-16T18:11:41.998Z,4198.4
2022-09-16T18:17:18.216Z,4199.9
2022-09-16T18:22:53.102Z,4198.7
2022-09-16T18:28:28.362Z,4200.1
2022-09-16T18:34:05.535Z,4201.1
2022-09-16T18:39:40.209Z,4199.6
2022-09-16T18:45:14.955Z,4197.7
2022-09-16T18:50:51.038Z,4199.2
2022-09-16T18:56:26.361Z,4195.9
2022-09-16T19:02:05.064Z,4197.7
2022-09-16T19:07:41.415Z,4197.2
2022-09-16T19:13:16.450Z,4197.2
2022-09-16T19:18:51.216Z,4194.9
2022-09-16T19:24:27.516Z,4196.4
2022-09-16T19:30:02.191Z,4195
2022-09-16T19:35:37.059Z,4196.7
2022-09-16T19:41:13.005Z,4196.2
2022-09-16T19:46:48.052Z,4194.2
2022-09-16T19:52:22.787Z,4191.7
2022-09-16T19:57:58.771Z,4192
2022-09-16T20:03:33.837Z,4193.4
2022-09-16T20:09:08.557Z,4194.9
2022-09-16T20:14:44.269Z,4193.2
2022-09-16T20:20:21.731Z,4191.4
2022-09-16T20:25:57.836Z,4192.7
2022-09-16T20:31:35.024Z,4194.2
2022-09-16T20:37:10.026Z,4191.2
2022-09-16T20:42:45.154Z,4192.7
2022-09-16T20:48:20.758Z,4188.5
2022-09-16T20:53:55.779Z,4191.2
2022-09-16T20:59:30.691Z,4189
2022-09-16T21:05:07.494Z,4191.2
2022-09-16T21:10:43.597Z,4191
2022-09-16T21:16:19.000Z,4190.3
2022-09-16T21:21:56.330Z,4190.5
2022-09-16T21:27:32.241Z,4189.7
2022-09-16T21:33:29.050Z,4184.5
2022-09-16T21:39:03.120Z,4188
2022-09-16T21:44:38.030Z,4186.5
2022-09-16T21:50:13.048Z,4186.5
2022-09-16T21:55:48.895Z,4187.3
2022-09-16T22:01:26.127Z,4187.5
2022-09-16T22:07:01.556Z,4186.3
2022-09-16T22:12:37.761Z,4186
2022-09-16T22:18:12.591Z,4184
2022-09-16T22:23:47.603Z,4186
2022-09-16T22:29:23.552Z,4186
2022-09-16T22:34:58.303Z,4181.5
2022-09-16T22:40:33.707Z,4183.6
2022-09-16T22:46:11.182Z,4181.1
2022-09-16T22:51:46.288Z,4180
2022-09-16T22:57:21.099Z,4182.5
2022-09-16T23:02:56.967Z,4182.5
2022-09-16T23:08:32.926Z,4182.6
2022-09-16T23:14:07.582Z,4182
2022-09-16T23:19:43.679Z,4183.5
2022-09-16T23:25:19.887Z,4183.3
2022-09-16T23:30:56.370Z,4180.3
2022-09-16T23:36:32.232Z,4177.1
2022-09-16T23:42:07.107Z,4179.3
2022-09-16T23:47:41.743Z,4178.1
2022-09-16T23:53:17.406Z,4177.6
2022-09-16T23:58:52.466Z,4181.3
